sensor_id;sensor_type;location;lat;lon;timestamp;P1;durP1;ratioP1;P2;durP2;ratioP2
70342;SDS011;57767;42.068;24.752;2023-07-29T00:00:09;4.50;;;2.90;;
70342;SDS011;57767;42.068;24.752;2023-07-29T00:01:14;2.53;;;2.25;;
70342;SDS011;57767;42.068;24.752;2023-07-29T00:02:16;3.90;;;2.80;;
70342;SDS011;57767;42.068;24.752;2023-07-29T00:03:18;3.00;;;2.28;;
70342;SDS011;57767;42.068;24.752;2023-07-29T00:04:20;3.28;;;2.40;;
70342;SDS011;57767;42.068;24.752;2023-07-29T00:05:22;3.42;;;2.30;;
70342;SDS011;57767;42.068;24.752;2023-07-29T00:06:23;4.90;;;2.53;;
70342;SDS011;57767;42.068;24.752;2023-07-29T00:07:25;5.07;;;2.45;;
70342;SDS011;57767;42.068;24.752;2023-07-29T00:08:28;5.60;;;2.60;;
70342;SDS011;57767;42.068;24.752;2023-07-29T00:09:29;2.90;;;2.40;;
70342;SDS011;57767;42.068;24.752;2023-07-29T00:10:31;3.75;;;2.40;;
70342;SDS011;57767;42.068;24.752;2023-07-29T00:11:34;2.53;;;2.17;;
70342;SDS011;57767;42.068;24.752;2023-07-29T00:12:36;3.95;;;2.25;;
70342;SDS011;57767;42.068;24.752;2023-07-29T00:13:38;4.50;;;3.00;;
70342;SDS011;57767;42.068;24.752;2023-07-29T00:14:40;3.50;;;2.50;;
70342;SDS011;57767;42.068;24.752;2023-07-29T00:15:41;4.50;;;2.58;;
70342;SDS011;57767;42.068;24.752;2023-07-29T00:16:43;4.38;;;2.60;;
70342;SDS011;57767;42.068;24.752;2023-07-29T00:17:45;3.75;;;2.22;;
70342;SDS011;57767;42.068;24.752;2023-07-29T00:18:47;4.75;;;2.50;;
70342;SDS011;57767;42.068;24.752;2023-07-29T00:19:50;3.88;;;2.70;;
70342;SDS011;57767;42.068;24.752;2023-07-29T00:20:51;3.63;;;2.85;;
70342;SDS011;57767;42.068;24.752;2023-07-29T00:21:53;3.28;;;2.60;;
70342;SDS011;57767;42.068;24.752;2023-07-29T00:22:55;3.70;;;2.65;;
70342;SDS011;57767;42.068;24.752;2023-07-29T00:23:58;2.72;;;2.53;;
70342;SDS011;57767;42.068;24.752;2023-07-29T00:25:02;2.72;;;2.45;;
70342;SDS011;57767;42.068;24.752;2023-07-29T00:26:04;3.33;;;2.80;;
70342;SDS011;57767;42.068;24.752;2023-07-29T00:27:06;3.85;;;2.50;;
70342;SDS011;57767;42.068;24.752;2023-07-29T00:28:08;2.38;;;2.17;;
70342;SDS011;57767;42.068;24.752;2023-07-29T00:29:10;3.60;;;2.30;;
70342;SDS011;57767;42.068;24.752;2023-07-29T00:30:12;3.03;;;2.10;;
70342;SDS011;57767;42.068;24.752;2023-07-29T00:31:14;3.47;;;2.40;;
70342;SDS011;57767;42.068;24.752;2023-07-29T00:32:15;7.07;;;2.50;;
70342;SDS011;57767;42.068;24.752;2023-07-29T00:33:17;2.75;;;2.35;;
70342;SDS011;57767;42.068;24.752;2023-07-29T00:34:20;3.58;;;2.80;;
70342;SDS011;57767;42.068;24.752;2023-07-29T00:35:21;4.22;;;2.60;;
70342;SDS011;57767;42.068;24.752;2023-07-29T00:36:23;5.10;;;2.17;;
70342;SDS011;57767;42.068;24.752;2023-07-29T00:37:25;4.80;;;2.58;;
70342;SDS011;57767;42.068;24.752;2023-07-29T00:38:27;3.25;;;2.30;;
70342;SDS011;57767;42.068;24.752;2023-07-29T00:39:29;4.07;;;2.50;;
70342;SDS011;57767;42.068;24.752;2023-07-29T00:40:31;2.97;;;2.50;;
70342;SDS011;57767;42.068;24.752;2023-07-29T00:41:37;5.97;;;2.85;;
70342;SDS011;57767;42.068;24.752;2023-07-29T00:42:39;4.43;;;2.70;;
70342;SDS011;57767;42.068;24.752;2023-07-29T00:43:41;5.15;;;2.65;;
70342;SDS011;57767;42.068;24.752;2023-07-29T00:44:43;3.15;;;2.33;;
70342;SDS011;57767;42.068;24.752;2023-07-29T00:45:44;5.68;;;2.90;;
70342;SDS011;57767;42.068;24.752;2023-07-29T00:46:52;4.82;;;2.33;;
70342;SDS011;57767;42.068;24.752;2023-07-29T00:47:54;7.07;;;2.60;;
70342;SDS011;57767;42.068;24.752;2023-07-29T00:48:56;3.15;;;2.60;;
70342;SDS011;57767;42.068;24.752;2023-07-29T00:49:58;5.70;;;2.75;;
70342;SDS011;57767;42.068;24.752;2023-07-29T00:51:00;3.65;;;2.65;;
70342;SDS011;57767;42.068;24.752;2023-07-29T00:52:02;6.05;;;2.60;;
70342;SDS011;57767;42.068;24.752;2023-07-29T00:53:04;4.03;;;2.80;;
70342;SDS011;57767;42.068;24.752;2023-07-29T00:54:06;6.60;;;2.75;;
70342;SDS011;57767;42.068;24.752;2023-07-29T00:55:08;2.80;;;2.50;;
70342;SDS011;57767;42.068;24.752;2023-07-29T00:56:10;3.63;;;2.90;;
70342;SDS011;57767;42.068;24.752;2023-07-29T00:57:12;3.03;;;2.60;;
70342;SDS011;57767;42.068;24.752;2023-07-29T00:58:16;3.55;;;2.50;;
70342;SDS011;57767;42.068;24.752;2023-07-29T00:59:18;4.38;;;2.58;;
70342;SDS011;57767;42.068;24.752;2023-07-29T01:00:21;6.57;;;2.50;;
70342;SDS011;57767;42.068;24.752;2023-07-29T01:01:23;5.60;;;2.85;;
70342;SDS011;57767;42.068;24.752;2023-07-29T01:02:25;4.25;;;2.60;;
70342;SDS011;57767;42.068;24.752;2023-07-29T01:03:30;4.97;;;2.75;;
70342;SDS011;57767;42.068;24.752;2023-07-29T01:04:32;3.55;;;2.83;;
70342;SDS011;57767;42.068;24.752;2023-07-29T01:05:45;3.22;;;2.90;;
70342;SDS011;57767;42.068;24.752;2023-07-29T01:07:03;3.67;;;2.83;;
70342;SDS011;57767;42.068;24.752;2023-07-29T01:08:17;4.78;;;2.85;;
70342;SDS011;57767;42.068;24.752;2023-07-29T01:09:37;6.65;;;3.22;;
70342;SDS011;57767;42.068;24.752;2023-07-29T01:11:04;6.63;;;2.88;;
70342;SDS011;57767;42.068;24.752;2023-07-29T01:12:51;5.22;;;3.25;;
70342;SDS011;57767;42.068;24.752;2023-07-29T01:16:58;4.10;;;2.47;;
70342;SDS011;57767;42.068;24.752;2023-07-29T01:18:05;3.88;;;2.97;;
70342;SDS011;57767;42.068;24.752;2023-07-29T01:19:15;7.82;;;2.95;;
70342;SDS011;57767;42.068;24.752;2023-07-29T01:20:29;4.05;;;2.90;;
70342;SDS011;57767;42.068;24.752;2023-07-29T01:21:35;4.85;;;3.00;;
70342;SDS011;57767;42.068;24.752;2023-07-29T01:22:37;4.40;;;2.70;;
70342;SDS011;57767;42.068;24.752;2023-07-29T01:23:41;7.13;;;2.90;;
70342;SDS011;57767;42.068;24.752;2023-07-29T01:24:43;3.13;;;2.67;;
70342;SDS011;57767;42.068;24.752;2023-07-29T01:25:44;6.03;;;3.00;;
70342;SDS011;57767;42.068;24.752;2023-07-29T01:26:46;3.35;;;2.95;;
70342;SDS011;57767;42.068;24.752;2023-07-29T01:27:48;3.20;;;2.88;;
70342;SDS011;57767;42.068;24.752;2023-07-29T01:28:53;4.20;;;2.60;;
70342;SDS011;57767;42.068;24.752;2023-07-29T01:29:55;3.10;;;2.80;;
70342;SDS011;57767;42.068;24.752;2023-07-29T01:31:03;2.92;;;2.40;;
70342;SDS011;57767;42.068;24.752;2023-07-29T01:32:14;4.00;;;2.83;;
70342;SDS011;57767;42.068;24.752;2023-07-29T01:33:23;3.90;;;2.50;;
70342;SDS011;57767;42.068;24.752;2023-07-29T01:34:32;4.60;;;2.88;;
70342;SDS011;57767;42.068;24.752;2023-07-29T01:35:42;4.50;;;2.50;;
70342;SDS011;57767;42.068;24.752;2023-07-29T01:36:57;4.45;;;3.00;;
70342;SDS011;57767;42.068;24.752;2023-07-29T01:38:13;3.85;;;2.60;;
70342;SDS011;57767;42.068;24.752;2023-07-29T01:39:20;3.70;;;2.75;;
70342;SDS011;57767;42.068;24.752;2023-07-29T01:40:24;3.67;;;2.70;;
70342;SDS011;57767;42.068;24.752;2023-07-29T01:41:32;4.93;;;2.88;;
70342;SDS011;57767;42.068;24.752;2023-07-29T01:42:34;5.05;;;2.90;;
70342;SDS011;57767;42.068;24.752;2023-07-29T01:43:37;3.38;;;2.60;;
70342;SDS011;57767;42.068;24.752;2023-07-29T01:44:45;4.72;;;3.13;;
70342;SDS011;57767;42.068;24.752;2023-07-29T01:45:47;3.42;;;2.63;;
70342;SDS011;57767;42.068;24.752;2023-07-29T01:46:49;4.07;;;2.78;;
70342;SDS011;57767;42.068;24.752;2023-07-29T01:47:52;3.75;;;2.92;;
70342;SDS011;57767;42.068;24.752;2023-07-29T01:48:54;5.25;;;2.85;;
70342;SDS011;57767;42.068;24.752;2023-07-29T01:49:56;3.30;;;2.92;;
70342;SDS011;57767;42.068;24.752;2023-07-29T01:50:57;3.10;;;2.80;;
70342;SDS011;57767;42.068;24.752;2023-07-29T01:51:59;3.35;;;2.50;;
70342;SDS011;57767;42.068;24.752;2023-07-29T01:53:01;3.25;;;2.95;;
70342;SDS011;57767;42.068;24.752;2023-07-29T01:54:03;3.28;;;2.88;;
70342;SDS011;57767;42.068;24.752;2023-07-29T01:55:05;3.30;;;3.00;;
70342;SDS011;57767;42.068;24.752;2023-07-29T01:56:07;3.40;;;2.83;;
70342;SDS011;57767;42.068;24.752;2023-07-29T01:57:09;3.58;;;2.80;;
70342;SDS011;57767;42.068;24.752;2023-07-29T01:58:11;2.78;;;2.45;;
70342;SDS011;57767;42.068;24.752;2023-07-29T01:59:14;3.25;;;2.90;;
70342;SDS011;57767;42.068;24.752;2023-07-29T02:00:20;3.55;;;2.85;;
70342;SDS011;57767;42.068;24.752;2023-07-29T02:01:22;5.65;;;3.20;;
70342;SDS011;57767;42.068;24.752;2023-07-29T02:02:24;3.40;;;3.10;;
70342;SDS011;57767;42.068;24.752;2023-07-29T02:03:26;3.45;;;2.78;;
70342;SDS011;57767;42.068;24.752;2023-07-29T02:04:28;3.58;;;2.40;;
70342;SDS011;57767;42.068;24.752;2023-07-29T02:05:29;2.90;;;2.70;;
70342;SDS011;57767;42.068;24.752;2023-07-29T02:06:31;3.55;;;2.80;;
70342;SDS011;57767;42.068;24.752;2023-07-29T02:07:33;3.78;;;2.80;;
70342;SDS011;57767;42.068;24.752;2023-07-29T02:08:35;3.20;;;2.72;;
70342;SDS011;57767;42.068;24.752;2023-07-29T02:09:37;3.10;;;2.80;;
70342;SDS011;57767;42.068;24.752;2023-07-29T02:10:38;4.45;;;2.78;;
70342;SDS011;57767;42.068;24.752;2023-07-29T02:11:40;4.07;;;2.75;;
70342;SDS011;57767;42.068;24.752;2023-07-29T02:12:42;5.80;;;3.00;;
70342;SDS011;57767;42.068;24.752;2023-07-29T02:13:44;4.28;;;3.10;;
70342;SDS011;57767;42.068;24.752;2023-07-29T02:14:49;3.10;;;2.78;;
70342;SDS011;57767;42.068;24.752;2023-07-29T02:15:50;4.25;;;2.55;;
70342;SDS011;57767;42.068;24.752;2023-07-29T02:16:53;3.80;;;2.90;;
70342;SDS011;57767;42.068;24.752;2023-07-29T02:17:55;4.97;;;2.63;;
70342;SDS011;57767;42.068;24.752;2023-07-29T02:18:57;3.60;;;2.83;;
70342;SDS011;57767;42.068;24.752;2023-07-29T02:19:58;3.00;;;2.70;;
70342;SDS011;57767;42.068;24.752;2023-07-29T02:21:00;3.10;;;2.80;;
70342;SDS011;57767;42.068;24.752;2023-07-29T02:22:02;3.00;;;2.60;;
70342;SDS011;57767;42.068;24.752;2023-07-29T02:23:07;3.45;;;2.75;;
70342;SDS011;57767;42.068;24.752;2023-07-29T02:24:09;7.47;;;3.20;;
70342;SDS011;57767;42.068;24.752;2023-07-29T02:25:11;4.85;;;2.90;;
70342;SDS011;57767;42.068;24.752;2023-07-29T02:26:13;4.38;;;2.55;;
70342;SDS011;57767;42.068;24.752;2023-07-29T02:27:14;3.25;;;2.85;;
70342;SDS011;57767;42.068;24.752;2023-07-29T02:28:16;3.35;;;3.05;;
70342;SDS011;57767;42.068;24.752;2023-07-29T02:29:18;3.78;;;2.80;;
70342;SDS011;57767;42.068;24.752;2023-07-29T02:30:20;3.00;;;2.80;;
70342;SDS011;57767;42.068;24.752;2023-07-29T02:31:23;4.60;;;2.85;;
70342;SDS011;57767;42.068;24.752;2023-07-29T02:32:26;3.15;;;2.85;;
70342;SDS011;57767;42.068;24.752;2023-07-29T02:33:28;3.90;;;3.50;;
70342;SDS011;57767;42.068;24.752;2023-07-29T02:34:30;4.82;;;2.70;;
70342;SDS011;57767;42.068;24.752;2023-07-29T02:35:32;3.60;;;2.97;;
70342;SDS011;57767;42.068;24.752;2023-07-29T02:36:34;3.95;;;3.08;;
70342;SDS011;57767;42.068;24.752;2023-07-29T02:37:36;3.78;;;2.55;;
70342;SDS011;57767;42.068;24.752;2023-07-29T02:38:39;5.22;;;2.67;;
70342;SDS011;57767;42.068;24.752;2023-07-29T02:39:41;5.18;;;2.88;;
70342;SDS011;57767;42.068;24.752;2023-07-29T02:40:43;4.88;;;2.92;;
70342;SDS011;57767;42.068;24.752;2023-07-29T02:41:45;3.75;;;3.10;;
70342;SDS011;57767;42.068;24.752;2023-07-29T02:42:46;3.50;;;2.80;;
70342;SDS011;57767;42.068;24.752;2023-07-29T02:43:48;4.78;;;2.80;;
70342;SDS011;57767;42.068;24.752;2023-07-29T02:44:51;3.60;;;2.90;;
70342;SDS011;57767;42.068;24.752;2023-07-29T02:45:52;4.55;;;3.17;;
70342;SDS011;57767;42.068;24.752;2023-07-29T02:46:54;5.88;;;2.67;;
70342;SDS011;57767;42.068;24.752;2023-07-29T02:47:57;4.75;;;3.17;;
70342;SDS011;57767;42.068;24.752;2023-07-29T02:48:59;3.05;;;2.78;;
70342;SDS011;57767;42.068;24.752;2023-07-29T02:50:01;3.40;;;2.92;;
70342;SDS011;57767;42.068;24.752;2023-07-29T02:51:02;3.63;;;2.90;;
70342;SDS011;57767;42.068;24.752;2023-07-29T02:52:04;3.90;;;2.85;;
70342;SDS011;57767;42.068;24.752;2023-07-29T02:53:06;6.10;;;2.85;;
70342;SDS011;57767;42.068;24.752;2023-07-29T02:54:08;4.68;;;2.63;;
70342;SDS011;57767;42.068;24.752;2023-07-29T02:55:10;4.53;;;2.95;;
70342;SDS011;57767;42.068;24.752;2023-07-29T02:56:11;3.42;;;2.95;;
70342;SDS011;57767;42.068;24.752;2023-07-29T02:57:13;4.38;;;3.20;;
70342;SDS011;57767;42.068;24.752;2023-07-29T02:58:15;5.65;;;2.85;;
70342;SDS011;57767;42.068;24.752;2023-07-29T02:59:17;4.22;;;2.67;;
70342;SDS011;57767;42.068;24.752;2023-07-29T03:00:19;4.13;;;2.50;;
70342;SDS011;57767;42.068;24.752;2023-07-29T03:01:20;4.05;;;3.20;;
70342;SDS011;57767;42.068;24.752;2023-07-29T03:02:26;3.40;;;3.05;;
70342;SDS011;57767;42.068;24.752;2023-07-29T03:03:28;3.08;;;2.67;;
70342;SDS011;57767;42.068;24.752;2023-07-29T03:04:31;11.75;;;3.03;;
70342;SDS011;57767;42.068;24.752;2023-07-29T03:05:34;5.22;;;3.00;;
70342;SDS011;57767;42.068;24.752;2023-07-29T03:06:37;5.30;;;2.58;;
70342;SDS011;57767;42.068;24.752;2023-07-29T03:07:39;4.13;;;2.58;;
70342;SDS011;57767;42.068;24.752;2023-07-29T03:08:41;5.00;;;2.85;;
70342;SDS011;57767;42.068;24.752;2023-07-29T03:09:42;3.88;;;3.13;;
70342;SDS011;57767;42.068;24.752;2023-07-29T03:10:45;3.88;;;2.78;;
70342;SDS011;57767;42.068;24.752;2023-07-29T03:11:47;5.10;;;2.88;;
70342;SDS011;57767;42.068;24.752;2023-07-29T03:12:49;4.40;;;2.70;;
70342;SDS011;57767;42.068;24.752;2023-07-29T03:13:51;3.40;;;3.10;;
70342;SDS011;57767;42.068;24.752;2023-07-29T03:14:52;4.47;;;2.75;;
70342;SDS011;57767;42.068;24.752;2023-07-29T03:15:54;6.22;;;3.50;;
70342;SDS011;57767;42.068;24.752;2023-07-29T03:17:09;6.00;;;2.92;;
70342;SDS011;57767;42.068;24.752;2023-07-29T03:18:11;3.35;;;3.05;;
70342;SDS011;57767;42.068;24.752;2023-07-29T03:19:12;3.95;;;2.78;;
70342;SDS011;57767;42.068;24.752;2023-07-29T03:20:14;3.55;;;2.70;;
70342;SDS011;57767;42.068;24.752;2023-07-29T03:21:16;5.43;;;3.03;;
70342;SDS011;57767;42.068;24.752;2023-07-29T03:22:18;5.13;;;3.00;;
70342;SDS011;57767;42.068;24.752;2023-07-29T03:23:20;3.60;;;2.75;;
70342;SDS011;57767;42.068;24.752;2023-07-29T03:24:21;5.63;;;2.97;;
70342;SDS011;57767;42.068;24.752;2023-07-29T03:25:23;4.75;;;2.95;;
70342;SDS011;57767;42.068;24.752;2023-07-29T03:26:25;3.90;;;2.67;;
70342;SDS011;57767;42.068;24.752;2023-07-29T03:27:27;2.80;;;2.40;;
70342;SDS011;57767;42.068;24.752;2023-07-29T03:28:29;4.70;;;3.08;;
70342;SDS011;57767;42.068;24.752;2023-07-29T03:29:33;5.57;;;2.90;;
70342;SDS011;57767;42.068;24.752;2023-07-29T03:30:35;6.45;;;3.15;;
70342;SDS011;57767;42.068;24.752;2023-07-29T03:31:37;3.50;;;2.78;;
70342;SDS011;57767;42.068;24.752;2023-07-29T03:32:42;4.80;;;2.92;;
70342;SDS011;57767;42.068;24.752;2023-07-29T03:33:46;6.95;;;2.88;;
70342;SDS011;57767;42.068;24.752;2023-07-29T03:34:49;4.88;;;2.95;;
70342;SDS011;57767;42.068;24.752;2023-07-29T03:35:51;6.75;;;3.03;;
70342;SDS011;57767;42.068;24.752;2023-07-29T03:36:53;3.75;;;2.90;;
70342;SDS011;57767;42.068;24.752;2023-07-29T03:37:55;3.78;;;2.75;;
70342;SDS011;57767;42.068;24.752;2023-07-29T03:38:56;4.38;;;3.08;;
70342;SDS011;57767;42.068;24.752;2023-07-29T03:39:59;3.63;;;2.75;;
70342;SDS011;57767;42.068;24.752;2023-07-29T03:41:07;4.28;;;2.88;;
70342;SDS011;57767;42.068;24.752;2023-07-29T03:42:10;3.30;;;2.50;;
70342;SDS011;57767;42.068;24.752;2023-07-29T03:43:11;7.00;;;3.10;;
70342;SDS011;57767;42.068;24.752;2023-07-29T03:44:13;5.45;;;2.75;;
70342;SDS011;57767;42.068;24.752;2023-07-29T03:45:15;3.85;;;2.85;;
70342;SDS011;57767;42.068;24.752;2023-07-29T03:46:17;4.45;;;2.90;;
70342;SDS011;57767;42.068;24.752;2023-07-29T03:47:22;4.80;;;2.83;;
70342;SDS011;57767;42.068;24.752;2023-07-29T03:48:24;4.70;;;3.70;;
70342;SDS011;57767;42.068;24.752;2023-07-29T03:49:26;7.30;;;2.90;;
70342;SDS011;57767;42.068;24.752;2023-07-29T03:50:28;4.53;;;3.22;;
70342;SDS011;57767;42.068;24.752;2023-07-29T03:51:31;7.07;;;3.30;;
70342;SDS011;57767;42.068;24.752;2023-07-29T03:52:33;4.10;;;2.88;;
70342;SDS011;57767;42.068;24.752;2023-07-29T03:53:34;6.28;;;3.20;;
70342;SDS011;57767;42.068;24.752;2023-07-29T03:54:37;5.35;;;3.13;;
70342;SDS011;57767;42.068;24.752;2023-07-29T03:55:38;4.95;;;3.20;;
70342;SDS011;57767;42.068;24.752;2023-07-29T03:56:40;4.88;;;2.83;;
70342;SDS011;57767;42.068;24.752;2023-07-29T03:57:42;4.97;;;3.20;;
70342;SDS011;57767;42.068;24.752;2023-07-29T03:58:45;3.72;;;3.28;;
70342;SDS011;57767;42.068;24.752;2023-07-29T03:59:48;4.63;;;3.20;;
70342;SDS011;57767;42.068;24.752;2023-07-29T04:00:49;5.18;;;3.50;;
70342;SDS011;57767;42.068;24.752;2023-07-29T04:01:51;6.05;;;2.83;;
70342;SDS011;57767;42.068;24.752;2023-07-29T04:02:53;4.70;;;3.25;;
70342;SDS011;57767;42.068;24.752;2023-07-29T04:03:55;4.90;;;3.05;;
70342;SDS011;57767;42.068;24.752;2023-07-29T04:04:57;5.45;;;3.20;;
70342;SDS011;57767;42.068;24.752;2023-07-29T04:05:59;4.78;;;2.90;;
70342;SDS011;57767;42.068;24.752;2023-07-29T04:07:01;8.95;;;2.80;;
70342;SDS011;57767;42.068;24.752;2023-07-29T04:08:05;4.70;;;3.20;;
70342;SDS011;57767;42.068;24.752;2023-07-29T04:09:07;4.13;;;3.17;;
70342;SDS011;57767;42.068;24.752;2023-07-29T04:10:09;3.30;;;3.00;;
70342;SDS011;57767;42.068;24.752;2023-07-29T04:11:11;4.05;;;3.35;;
70342;SDS011;57767;42.068;24.752;2023-07-29T04:12:13;3.95;;;3.13;;
70342;SDS011;57767;42.068;24.752;2023-07-29T04:13:15;6.00;;;3.13;;
70342;SDS011;57767;42.068;24.752;2023-07-29T04:14:17;3.78;;;3.08;;
70342;SDS011;57767;42.068;24.752;2023-07-29T04:15:18;3.72;;;2.92;;
70342;SDS011;57767;42.068;24.752;2023-07-29T04:16:20;5.68;;;3.05;;
70342;SDS011;57767;42.068;24.752;2023-07-29T04:17:22;3.35;;;3.00;;
70342;SDS011;57767;42.068;24.752;2023-07-29T04:18:24;4.93;;;3.30;;
70342;SDS011;57767;42.068;24.752;2023-07-29T04:19:26;4.10;;;3.70;;
70342;SDS011;57767;42.068;24.752;2023-07-29T04:20:28;13.90;;;4.40;;
70342;SDS011;57767;42.068;24.752;2023-07-29T04:21:30;6.82;;;3.63;;
70342;SDS011;57767;42.068;24.752;2023-07-29T04:22:32;10.43;;;3.75;;
70342;SDS011;57767;42.068;24.752;2023-07-29T04:23:34;7.78;;;3.60;;
70342;SDS011;57767;42.068;24.752;2023-07-29T04:24:37;6.20;;;3.80;;
70342;SDS011;57767;42.068;24.752;2023-07-29T04:25:39;5.88;;;3.90;;
70342;SDS011;57767;42.068;24.752;2023-07-29T04:26:41;5.57;;;3.47;;
70342;SDS011;57767;42.068;24.752;2023-07-29T04:27:42;8.90;;;4.30;;
70342;SDS011;57767;42.068;24.752;2023-07-29T04:28:44;7.57;;;3.70;;
70342;SDS011;57767;42.068;24.752;2023-07-29T04:29:46;5.50;;;3.92;;
70342;SDS011;57767;42.068;24.752;2023-07-29T04:30:48;12.35;;;4.07;;
70342;SDS011;57767;42.068;24.752;2023-07-29T04:31:52;10.32;;;3.75;;
70342;SDS011;57767;42.068;24.752;2023-07-29T04:32:54;10.18;;;4.00;;
70342;SDS011;57767;42.068;24.752;2023-07-29T04:33:56;6.07;;;3.80;;
70342;SDS011;57767;42.068;24.752;2023-07-29T04:34:57;12.27;;;3.88;;
70342;SDS011;57767;42.068;24.752;2023-07-29T04:35:59;13.40;;;3.95;;
70342;SDS011;57767;42.068;24.752;2023-07-29T04:37:01;6.75;;;3.80;;
70342;SDS011;57767;42.068;24.752;2023-07-29T04:38:03;4.95;;;3.80;;
70342;SDS011;57767;42.068;24.752;2023-07-29T04:39:04;6.15;;;3.85;;
70342;SDS011;57767;42.068;24.752;2023-07-29T04:40:07;6.55;;;3.60;;
70342;SDS011;57767;42.068;24.752;2023-07-29T04:41:09;7.65;;;3.90;;
70342;SDS011;57767;42.068;24.752;2023-07-29T04:42:11;7.25;;;3.58;;
70342;SDS011;57767;42.068;24.752;2023-07-29T04:43:12;8.20;;;4.00;;
70342;SDS011;57767;42.068;24.752;2023-07-29T04:44:14;7.05;;;3.88;;
70342;SDS011;57767;42.068;24.752;2023-07-29T04:45:16;5.93;;;4.00;;
70342;SDS011;57767;42.068;24.752;2023-07-29T04:46:18;8.68;;;4.30;;
70342;SDS011;57767;42.068;24.752;2023-07-29T04:47:20;5.10;;;3.42;;
70342;SDS011;57767;42.068;24.752;2023-07-29T04:48:22;11.10;;;3.90;;
70342;SDS011;57767;42.068;24.752;2023-07-29T04:49:23;5.07;;;3.15;;
70342;SDS011;57767;42.068;24.752;2023-07-29T04:50:25;6.28;;;3.67;;
70342;SDS011;57767;42.068;24.752;2023-07-29T04:51:27;6.78;;;3.65;;
70342;SDS011;57767;42.068;24.752;2023-07-29T04:52:29;5.18;;;3.30;;
70342;SDS011;57767;42.068;24.752;2023-07-29T04:53:31;6.88;;;2.80;;
70342;SDS011;57767;42.068;24.752;2023-07-29T04:54:32;4.30;;;3.10;;
70342;SDS011;57767;42.068;24.752;2023-07-29T04:55:34;4.47;;;2.65;;
70342;SDS011;57767;42.068;24.752;2023-07-29T04:56:36;9.07;;;3.00;;
70342;SDS011;57767;42.068;24.752;2023-07-29T04:57:38;7.93;;;3.45;;
70342;SDS011;57767;42.068;24.752;2023-07-29T04:58:40;5.93;;;3.58;;
70342;SDS011;57767;42.068;24.752;2023-07-29T04:59:42;8.00;;;3.38;;
70342;SDS011;57767;42.068;24.752;2023-07-29T05:00:43;19.45;;;4.75;;
70342;SDS011;57767;42.068;24.752;2023-07-29T05:01:48;17.25;;;4.78;;
70342;SDS011;57767;42.068;24.752;2023-07-29T05:02:51;28.38;;;6.47;;
70342;SDS011;57767;42.068;24.752;2023-07-29T05:03:53;7.07;;;3.80;;
70342;SDS011;57767;42.068;24.752;2023-07-29T05:04:55;6.72;;;3.55;;
70342;SDS011;57767;42.068;24.752;2023-07-29T05:05:57;8.85;;;4.28;;
70342;SDS011;57767;42.068;24.752;2023-07-29T05:07:00;7.55;;;3.70;;
70342;SDS011;57767;42.068;24.752;2023-07-29T05:08:02;10.18;;;4.20;;
70342;SDS011;57767;42.068;24.752;2023-07-29T05:09:17;7.78;;;3.38;;
70342;SDS011;57767;42.068;24.752;2023-07-29T05:10:21;8.10;;;3.33;;
70342;SDS011;57767;42.068;24.752;2023-07-29T05:11:23;4.13;;;3.55;;
70342;SDS011;57767;42.068;24.752;2023-07-29T05:12:26;4.65;;;3.20;;
70342;SDS011;57767;42.068;24.752;2023-07-29T05:13:28;7.25;;;3.15;;
70342;SDS011;57767;42.068;24.752;2023-07-29T05:14:30;4.55;;;3.47;;
70342;SDS011;57767;42.068;24.752;2023-07-29T05:15:32;3.67;;;3.35;;
70342;SDS011;57767;42.068;24.752;2023-07-29T05:16:34;8.80;;;3.20;;
70342;SDS011;57767;42.068;24.752;2023-07-29T05:17:36;6.25;;;3.50;;
70342;SDS011;57767;42.068;24.752;2023-07-29T05:18:38;7.32;;;3.38;;
70342;SDS011;57767;42.068;24.752;2023-07-29T05:19:40;7.38;;;3.30;;
70342;SDS011;57767;42.068;24.752;2023-07-29T05:20:42;4.80;;;3.28;;
70342;SDS011;57767;42.068;24.752;2023-07-29T05:21:44;3.72;;;3.30;;
70342;SDS011;57767;42.068;24.752;2023-07-29T05:22:46;7.15;;;3.60;;
70342;SDS011;57767;42.068;24.752;2023-07-29T05:23:48;4.72;;;3.17;;
70342;SDS011;57767;42.068;24.752;2023-07-29T05:24:49;5.65;;;3.20;;
70342;SDS011;57767;42.068;24.752;2023-07-29T05:25:51;5.82;;;3.20;;
70342;SDS011;57767;42.068;24.752;2023-07-29T05:26:53;5.68;;;3.22;;
70342;SDS011;57767;42.068;24.752;2023-07-29T05:27:55;5.72;;;3.25;;
70342;SDS011;57767;42.068;24.752;2023-07-29T05:28:57;8.40;;;3.20;;
70342;SDS011;57767;42.068;24.752;2023-07-29T05:29:58;5.20;;;3.53;;
70342;SDS011;57767;42.068;24.752;2023-07-29T05:31:01;3.97;;;2.97;;
70342;SDS011;57767;42.068;24.752;2023-07-29T05:32:03;6.15;;;3.28;;
70342;SDS011;57767;42.068;24.752;2023-07-29T05:33:05;3.70;;;3.03;;
70342;SDS011;57767;42.068;24.752;2023-07-29T05:34:09;3.63;;;3.13;;
70342;SDS011;57767;42.068;24.752;2023-07-29T05:35:11;4.00;;;2.88;;
70342;SDS011;57767;42.068;24.752;2023-07-29T05:36:12;2.75;;;2.50;;
70342;SDS011;57767;42.068;24.752;2023-07-29T05:37:14;4.95;;;2.88;;
70342;SDS011;57767;42.068;24.752;2023-07-29T05:38:16;3.05;;;2.75;;
70342;SDS011;57767;42.068;24.752;2023-07-29T05:39:18;3.42;;;3.13;;
70342;SDS011;57767;42.068;24.752;2023-07-29T05:40:20;4.43;;;3.03;;
70342;SDS011;57767;42.068;24.752;2023-07-29T05:41:22;6.40;;;2.92;;
70342;SDS011;57767;42.068;24.752;2023-07-29T05:42:23;4.88;;;2.95;;
70342;SDS011;57767;42.068;24.752;2023-07-29T05:43:25;3.90;;;2.83;;
70342;SDS011;57767;42.068;24.752;2023-07-29T05:44:27;5.13;;;3.28;;
70342;SDS011;57767;42.068;24.752;2023-07-29T05:45:29;3.28;;;2.97;;
70342;SDS011;57767;42.068;24.752;2023-07-29T05:46:32;5.82;;;2.80;;
70342;SDS011;57767;42.068;24.752;2023-07-29T05:47:34;5.88;;;2.83;;
70342;SDS011;57767;42.068;24.752;2023-07-29T05:48:36;7.13;;;3.00;;
70342;SDS011;57767;42.068;24.752;2023-07-29T05:49:38;7.72;;;3.20;;
70342;SDS011;57767;42.068;24.752;2023-07-29T05:50:41;3.90;;;2.65;;
70342;SDS011;57767;42.068;24.752;2023-07-29T05:51:43;3.15;;;2.83;;
70342;SDS011;57767;42.068;24.752;2023-07-29T05:52:45;4.78;;;2.92;;
70342;SDS011;57767;42.068;24.752;2023-07-29T05:53:47;4.25;;;2.90;;
70342;SDS011;57767;42.068;24.752;2023-07-29T05:54:49;6.15;;;3.08;;
70342;SDS011;57767;42.068;24.752;2023-07-29T05:55:51;5.93;;;2.58;;
70342;SDS011;57767;42.068;24.752;2023-07-29T05:56:53;3.88;;;3.00;;
70342;SDS011;57767;42.068;24.752;2023-07-29T05:57:55;4.85;;;2.83;;
70342;SDS011;57767;42.068;24.752;2023-07-29T05:58:57;7.10;;;3.30;;
70342;SDS011;57767;42.068;24.752;2023-07-29T05:59:59;3.92;;;2.75;;
70342;SDS011;57767;42.068;24.752;2023-07-29T06:01:00;5.20;;;3.05;;
70342;SDS011;57767;42.068;24.752;2023-07-29T06:02:02;3.05;;;2.63;;
70342;SDS011;57767;42.068;24.752;2023-07-29T06:03:05;3.17;;;2.80;;
70342;SDS011;57767;42.068;24.752;2023-07-29T06:04:07;4.65;;;2.83;;
70342;SDS011;57767;42.068;24.752;2023-07-29T06:05:09;3.05;;;2.60;;
70342;SDS011;57767;42.068;24.752;2023-07-29T06:06:11;3.95;;;2.60;;
70342;SDS011;57767;42.068;24.752;2023-07-29T06:07:13;3.97;;;2.80;;
70342;SDS011;57767;42.068;24.752;2023-07-29T06:08:15;3.97;;;2.65;;
70342;SDS011;57767;42.068;24.752;2023-07-29T06:09:17;3.25;;;2.78;;
70342;SDS011;57767;42.068;24.752;2023-07-29T06:10:19;4.18;;;2.75;;
70342;SDS011;57767;42.068;24.752;2023-07-29T06:11:21;5.47;;;2.90;;
70342;SDS011;57767;42.068;24.752;2023-07-29T06:12:22;3.88;;;2.60;;
70342;SDS011;57767;42.068;24.752;2023-07-29T06:13:24;5.80;;;2.63;;
70342;SDS011;57767;42.068;24.752;2023-07-29T06:14:26;6.15;;;3.00;;
70342;SDS011;57767;42.068;24.752;2023-07-29T06:15:28;6.38;;;2.83;;